createdAt,value
2023-04-06T00:01:05.630Z,31.42
2023-04-06T00:03:32.672Z,30.85
2023-04-06T00:05:59.834Z,32.63
2023-04-06T00:08:28.036Z,34.10
2023-04-06T00:10:55.094Z,32.00
2023-04-06T00:13:22.328Z,40.05
2023-04-06T00:15:49.423Z,42.67
2023-04-06T00:18:16.650Z,38.42
2023-04-06T00:20:43.636Z,29.98
2023-04-06T00:23:10.689Z,36.10
2023-04-06T00:25:37.632Z,32.15
2023-04-06T00:28:04.840Z,31.77
2023-04-06T00:30:31.907Z,28.75
2023-04-06T00:32:59.044Z,36.83
2023-04-06T00:35:26.260Z,33.22
2023-04-06T00:37:53.548Z,34.47
2023-04-06T00:40:20.666Z,33.70
2023-04-06T00:42:47.776Z,25.40
2023-04-06T00:45:14.876Z,29.60
2023-04-06T00:47:42.201Z,35.58
2023-04-06T00:50:09.345Z,27.90
2023-04-06T00:52:36.886Z,25.55
2023-04-06T00:55:06.685Z,28.77
2023-04-06T00:57:38.648Z,27.17
2023-04-06T01:00:06.449Z,30.15
2023-04-06T01:02:33.872Z,27.70
2023-04-06T01:05:01.341Z,24.73
2023-04-06T01:07:39.223Z,24.10
2023-04-06T01:10:23.318Z,24.20
2023-04-06T01:12:51.141Z,25.52
2023-04-06T01:15:29.723Z,24.60
2023-04-06T01:17:56.865Z,22.92
2023-04-06T01:20:24.123Z,28.48
2023-04-06T01:22:51.743Z,26.30
2023-04-06T01:25:19.599Z,26.02
2023-04-06T01:28:03.283Z,26.33
2023-04-06T01:30:50.709Z,22.27
2023-04-06T01:33:37.737Z,24.95
2023-04-06T01:38:36.041Z,27.10
2023-04-06T01:41:03.357Z,25.38
2023-04-06T01:43:37.047Z,29.65
2023-04-06T01:46:10.518Z,27.08
2023-04-06T01:48:41.216Z,28.23
2023-04-06T01:51:22.400Z,31.38
2023-04-06T01:53:55.068Z,29.50
2023-04-06T01:56:27.733Z,31.58
2023-04-06T01:59:09.460Z,25.83
2023-04-06T02:01:40.742Z,27.08
2023-04-06T02:04:07.805Z,25.83
2023-04-06T02:06:35.135Z,27.13
2023-04-06T02:09:03.993Z,32.88
2023-04-06T02:11:31.454Z,26.60
2023-04-06T02:13:58.501Z,27.77
2023-04-06T02:16:29.989Z,29.83
2023-04-06T02:18:57.304Z,26.17
2023-04-06T02:21:24.380Z,30.23
2023-04-06T02:23:51.465Z,25.55
2023-04-06T02:26:18.510Z,26.08
2023-04-06T02:28:45.769Z,30.05
2023-04-06T02:31:12.890Z,29.52
2023-04-06T02:33:40.150Z,28.38
2023-04-06T02:36:07.761Z,27.17
2023-04-06T02:38:35.151Z,28.15
2023-04-06T02:41:03.144Z,28.55
2023-04-06T02:43:30.733Z,26.27
2023-04-06T02:46:14.450Z,28.13
2023-04-06T02:48:41.974Z,29.10
2023-04-06T02:51:09.214Z,30.15
2023-04-06T02:53:37.661Z,28.95
2023-04-06T02:56:05.238Z,34.78
2023-04-06T02:58:42.619Z,27.60
2023-04-06T03:01:09.833Z,29.13
2023-04-06T03:03:37.966Z,33.92
2023-04-06T03:06:09.900Z,30.15
2023-04-06T03:08:37.027Z,36.25
2023-04-06T03:11:04.187Z,31.98
2023-04-06T03:13:39.723Z,33.05
2023-04-06T03:16:07.597Z,37.22
2023-04-06T03:18:35.528Z,37.75
2023-04-06T03:21:02.604Z,33.17
2023-04-06T03:23:40.054Z,35.00
2023-04-06T03:26:07.154Z,37.63
2023-04-06T03:28:34.589Z,28.80
2023-04-06T03:31:05.124Z,30.40
2023-04-06T03:33:46.129Z,30.00
2023-04-06T03:36:22.458Z,27.40
2023-04-06T03:38:49.611Z,27.23
2023-04-06T03:41:17.073Z,27.60
2023-04-06T03:43:51.781Z,27.90
2023-04-06T03:46:18.806Z,31.23
2023-04-06T03:48:47.002Z,36.30
2023-04-06T03:51:14.040Z,32.60
2023-04-06T03:53:41.688Z,29.42
2023-04-06T03:56:08.920Z,31.23
2023-04-06T03:58:36.114Z,32.08
2023-04-06T04:01:03.420Z,25.45
2023-04-06T04:03:30.453Z,33.38
2023-04-06T04:05:57.558Z,36.50
2023-04-06T04:08:26.261Z,33.92
2023-04-06T04:10:53.171Z,34.33
2023-04-06T04:13:20.621Z,32.95
2023-04-06T04:15:50.534Z,38.20
2023-04-06T04:18:17.470Z,36.33
2023-04-06T04:20:44.421Z,40.92
2023-04-06T04:23:13.014Z,38.30
2023-04-06T04:25:40.300Z,40.90
2023-04-06T04:28:08.005Z,32.63
2023-04-06T04:30:36.357Z,31.50
2023-04-06T04:33:08.261Z,33.47
2023-04-06T04:35:35.471Z,41.00
2023-04-06T04:38:02.758Z,32.80
2023-04-06T04:40:30.624Z,35.85
2023-04-06T04:43:06.648Z,41.20
2023-04-06T04:45:35.082Z,30.15
2023-04-06T04:48:22.328Z,33.53
2023-04-06T04:50:57.493Z,32.45
2023-04-06T04:53:28.862Z,33.28
2023-04-06T04:56:02.046Z,31.58
2023-04-06T04:58:29.136Z,31.55
2023-04-06T05:00:58.710Z,32.35
2023-04-06T05:03:27.728Z,34.35
2023-04-06T05:06:05.567Z,30.35
2023-04-06T05:08:35.905Z,28.08
2023-04-06T05:11:03.167Z,29.30
2023-04-06T05:13:34.673Z,31.27
2023-04-06T05:16:07.655Z,35.55
2023-04-06T05:18:35.657Z,30.45
2023-04-06T05:21:04.053Z,37.42
2023-04-06T05:23:55.052Z,36.75
2023-04-06T05:26:22.735Z,44.50
2023-04-06T05:28:53.163Z,42.20
2023-04-06T05:31:20.768Z,38.95
2023-04-06T05:36:27.846Z,50.78
2023-04-06T05:38:56.300Z,58.70
2023-04-06T05:41:43.503Z,58.25
2023-04-06T05:44:11.993Z,45.40
2023-04-06T05:46:41.880Z,63.17
2023-04-06T05:49:15.564Z,54.63
2023-04-06T05:51:42.613Z,51.67
2023-04-06T05:54:10.134Z,48.33
2023-04-06T05:56:37.722Z,44.80
2023-04-06T05:59:07.105Z,41.88
2023-04-06T06:01:35.928Z,46.72
2023-04-06T06:04:03.454Z,50.28
2023-04-06T06:06:33.284Z,49.78
2023-04-06T06:09:16.496Z,46.65
2023-04-06T06:11:53.684Z,48.83
2023-04-06T06:14:24.917Z,43.13
2023-04-06T06:16:52.066Z,46.60
2023-04-06T06:19:19.839Z,53.88
2023-04-06T06:21:47.261Z,51.42
2023-04-06T06:24:15.392Z,55.28
2023-04-06T06:26:42.567Z,51.65
2023-04-06T06:29:11.727Z,43.67
2023-04-06T06:31:40.270Z,53.03
2023-04-06T06:34:07.925Z,42.10
2023-04-06T06:36:36.699Z,48.10
2023-04-06T06:39:07.738Z,47.67
2023-04-06T06:41:35.242Z,47.08
2023-04-06T06:44:02.465Z,50.75
2023-04-06T06:46:29.725Z,51.85
2023-04-06T06:48:56.778Z,49.92
2023-04-06T06:51:23.801Z,60.05
2023-04-06T06:53:50.993Z,52.10
2023-04-06T06:56:17.934Z,52.20
2023-04-06T06:58:44.982Z,49.55
2023-04-06T07:01:12.106Z,43.25
2023-04-06T07:03:39.148Z,41.97
2023-04-06T07:06:06.417Z,40.20
2023-04-06T07:08:33.366Z,32.78
2023-04-06T07:11:00.518Z,29.10
2023-04-06T07:13:28.705Z,30.25
2023-04-06T07:15:58.810Z,29.23
2023-04-06T07:18:26.508Z,28.35
2023-04-06T07:20:53.652Z,28.75
2023-04-06T07:23:20.764Z,25.02
2023-04-06T07:25:47.926Z,28.55
2023-04-06T07:28:15.009Z,27.05
2023-04-06T07:30:42.656Z,21.48
2023-04-06T07:33:11.258Z,21.83
2023-04-06T07:35:39.189Z,25.17
2023-04-06T07:38:07.074Z,20.70
2023-04-06T07:40:35.618Z,11.63
2023-04-06T07:43:03.665Z,17.70
2023-04-06T07:45:31.111Z,21.63
2023-04-06T07:47:58.866Z,21.60
2023-04-06T07:50:27.539Z,19.88
2023-04-06T07:52:55.849Z,19.95
2023-04-06T07:55:23.499Z,17.90
2023-04-06T07:57:50.582Z,14.77
2023-04-06T08:00:18.232Z,10.30
2023-04-06T08:02:45.599Z,12.98
2023-04-06T08:05:12.759Z,14.07
2023-04-06T08:07:40.076Z,15.20
2023-04-06T08:10:07.380Z,11.13
2023-04-06T08:12:35.222Z,10.23
2023-04-06T08:15:03.810Z,14.32
2023-04-06T08:17:32.586Z,12.45
2023-04-06T08:20:00.017Z,11.48
2023-04-06T08:22:27.151Z,8.60
2023-04-06T08:24:54.530Z,10.02
2023-04-06T08:27:21.725Z,10.95
2023-04-06T08:29:50.974Z,8.98
2023-04-06T08:32:18.106Z,10.82
2023-04-06T08:34:45.121Z,10.20
2023-04-06T08:37:12.110Z,9.55
2023-04-06T08:39:39.271Z,8.85
2023-04-06T08:42:20.139Z,7.38
2023-04-06T08:44:48.519Z,7.97
2023-04-06T08:47:15.642Z,8.02
2023-04-06T08:49:43.461Z,8.70
2023-04-06T08:52:12.067Z,8.02
2023-04-06T08:54:39.848Z,9.90
2023-04-06T08:57:08.011Z,6.38
2023-04-06T08:59:35.847Z,7.80
2023-04-06T09:02:06.490Z,8.10
2023-04-06T09:04:35.901Z,7.65
2023-04-06T09:07:03.158Z,7.13
2023-04-06T09:09:30.542Z,7.25
2023-04-06T09:12:02.908Z,9.20
2023-04-06T09:14:40.580Z,8.05
2023-04-06T09:17:07.952Z,7.97
2023-04-06T09:19:35.126Z,6.55
2023-04-06T09:22:08.465Z,7.55
2023-04-06T09:24:47.492Z,9.52
2023-04-06T09:27:15.101Z,9.38
2023-04-06T09:29:43.155Z,9.02
2023-04-06T09:32:18.038Z,8.55
2023-04-06T09:34:50.902Z,10.55
2023-04-06T09:37:20.287Z,11.27
2023-04-06T09:39:47.896Z,12.15
2023-04-06T09:42:27.259Z,8.38
2023-04-06T09:44:54.333Z,10.40
2023-04-06T09:47:25.373Z,11.77
2023-04-06T09:49:59.444Z,10.45
2023-04-06T09:52:34.564Z,12.10
2023-04-06T09:55:05.138Z,10.88
2023-04-06T09:58:03.205Z,10.88
2023-04-06T10:00:33.410Z,14.82
2023-04-06T10:03:26.568Z,14.48
2023-04-06T10:05:59.709Z,15.82
2023-04-06T10:08:32.521Z,11.35
2023-04-06T10:11:01.844Z,14.30
2023-04-06T10:13:28.995Z,10.18
2023-04-06T10:15:56.527Z,9.95
2023-04-06T10:18:24.296Z,12.95
2023-04-06T10:20:56.226Z,13.23
2023-04-06T10:23:44.937Z,10.05
2023-04-06T10:26:21.749Z,11.25
2023-04-06T10:28:50.477Z,13.02
2023-04-06T10:31:26.546Z,10.10
2023-04-06T10:33:57.812Z,10.80
2023-04-06T10:36:27.693Z,10.85
2023-04-06T10:39:00.339Z,11.50
2023-04-06T10:41:46.940Z,12.07
2023-04-06T10:44:26.333Z,14.32
2023-04-06T10:47:03.905Z,11.02
2023-04-06T10:49:31.118Z,11.88
2023-04-06T10:51:58.715Z,9.80
2023-04-06T10:54:28.139Z,9.93
2023-04-06T10:56:55.344Z,10.57
2023-04-06T10:59:25.960Z,11.52
2023-04-06T11:01:54.325Z,9.75
2023-04-06T11:04:22.151Z,9.70
2023-04-06T11:06:51.185Z,8.20
2023-04-06T11:09:28.967Z,11.25
2023-04-06T11:11:57.211Z,9.15
2023-04-06T11:14:24.631Z,10.23
2023-04-06T11:16:52.232Z,9.20
2023-04-06T11:19:19.861Z,10.68
2023-04-06T11:21:49.954Z,9.52
2023-04-06T11:24:26.163Z,8.02
2023-04-06T11:26:56.304Z,8.57
2023-04-06T11:29:24.606Z,8.93
2023-04-06T11:31:59.805Z,10.73
2023-04-06T11:34:29.450Z,6.80
2023-04-06T11:37:00.371Z,8.65
2023-04-06T11:39:29.355Z,9.48
2023-04-06T11:42:01.652Z,8.75
2023-04-06T11:44:37.585Z,9.15
2023-04-06T11:47:05.644Z,11.32
2023-04-06T11:49:34.101Z,8.68
2023-04-06T11:52:02.193Z,9.07
2023-04-06T11:54:35.963Z,8.77
2023-04-06T11:57:04.361Z,8.43
2023-04-06T11:59:32.187Z,9.55
2023-04-06T12:01:59.613Z,9.40
2023-04-06T12:04:26.695Z,8.63
2023-04-06T12:06:53.908Z,11.82
2023-04-06T12:09:21.015Z,11.77
2023-04-06T12:11:48.265Z,7.63
2023-04-06T12:14:15.307Z,9.73
2023-04-06T12:16:42.378Z,7.95
2023-04-06T12:19:09.541Z,8.77
2023-04-06T12:21:39.712Z,10.23
2023-04-06T12:24:07.217Z,7.97
2023-04-06T12:26:34.621Z,9.10
2023-04-06T12:29:07.936Z,9.45
2023-04-06T12:31:40.204Z,8.23
2023-04-06T12:34:08.096Z,8.52
2023-04-06T12:36:35.258Z,10.50
2023-04-06T12:39:03.711Z,9.18
2023-04-06T12:41:30.912Z,8.80
2023-04-06T12:43:57.949Z,11.63
2023-04-06T12:46:25.129Z,9.23
2023-04-06T12:48:56.162Z,7.55
2023-04-06T12:51:23.651Z,10.48
2023-04-06T12:53:51.464Z,9.30
2023-04-06T12:56:19.431Z,9.35
2023-04-06T12:58:46.905Z,11.88
2023-04-06T13:01:14.575Z,7.97
2023-04-06T13:03:42.317Z,7.60
2023-04-06T13:06:09.754Z,8.95
2023-04-06T13:08:38.587Z,7.55
2023-04-06T13:11:06.620Z,9.45
2023-04-06T13:13:33.732Z,10.00
2023-04-06T13:16:03.862Z,9.20
2023-04-06T13:18:32.521Z,9.95
2023-04-06T13:21:00.686Z,9.00
2023-04-06T13:23:27.986Z,10.07
2023-04-06T13:26:02.167Z,8.85
2023-04-06T13:28:29.275Z,6.70
2023-04-06T13:30:56.616Z,13.30
2023-04-06T13:33:24.037Z,7.10
2023-04-06T13:35:51.448Z,8.20
2023-04-06T13:38:18.722Z,11.98
2023-04-06T13:40:45.800Z,7.97
2023-04-06T13:43:12.919Z,8.65
2023-04-06T13:45:40.320Z,8.68
2023-04-06T13:48:07.837Z,6.85
2023-04-06T13:50:35.422Z,8.20
2023-04-06T13:53:02.431Z,7.40
2023-04-06T13:55:29.668Z,8.75
2023-04-06T13:57:56.784Z,8.77
2023-04-06T14:00:24.967Z,8.90
2023-04-06T14:02:52.083Z,7.47
2023-04-06T14:05:19.235Z,7.47
2023-04-06T14:07:46.278Z,6.82
2023-04-06T14:10:15.386Z,9.57
2023-04-06T14:12:43.394Z,7.32
2023-04-06T14:15:11.986Z,7.93
2023-04-06T14:17:39.734Z,10.00
2023-04-06T14:20:07.854Z,12.25
2023-04-06T14:22:35.152Z,6.70
2023-04-06T14:25:02.240Z,10.65
2023-04-06T14:27:29.215Z,8.70
2023-04-06T14:29:56.235Z,9.18
2023-04-06T14:32:23.562Z,7.65
2023-04-06T14:34:50.680Z,7.15
2023-04-06T14:37:18.792Z,9.43
2023-04-06T14:39:45.828Z,9.23
2023-04-06T14:42:12.816Z,6.10
2023-04-06T14:44:43.915Z,8.93
2023-04-06T14:47:11.268Z,7.22
2023-04-06T14:49:38.451Z,10.63
2023-04-06T14:52:05.940Z,7.15
2023-04-06T14:54:32.974Z,11.20
2023-04-06T14:56:59.884Z,8.13
2023-04-06T15:02:01.251Z,9.40
2023-04-06T15:04:28.693Z,10.05
2023-04-06T15:06:55.840Z,7.97
2023-04-06T15:09:23.416Z,10.07
2023-04-06T15:11:50.562Z,8.35
2023-04-06T15:14:17.659Z,10.65
2023-04-06T15:16:44.725Z,8.98
2023-04-06T15:19:12.168Z,10.15
2023-04-06T15:21:40.381Z,9.75
2023-04-06T15:24:09.691Z,9.18
2023-04-06T15:26:38.215Z,10.70
2023-04-06T15:29:05.342Z,9.13
2023-04-06T15:31:38.226Z,10.63
2023-04-06T15:34:09.171Z,10.63
2023-04-06T15:36:36.565Z,8.10
2023-04-06T15:39:04.898Z,7.93
2023-04-06T15:41:32.341Z,11.00
2023-04-06T15:43:59.505Z,10.68
2023-04-06T15:46:28.606Z,8.85
2023-04-06T15:48:56.387Z,11.43
2023-04-06T15:51:24.502Z,12.45
2023-04-06T15:53:51.784Z,8.63
2023-04-06T15:56:18.953Z,9.65
2023-04-06T15:58:46.160Z,10.20
2023-04-06T16:01:19.691Z,7.68
2023-04-06T16:03:47.267Z,10.88
2023-04-06T16:06:14.508Z,10.90
2023-04-06T16:08:41.691Z,14.98
2023-04-06T16:11:09.738Z,9.85
2023-04-06T16:13:37.360Z,9.00
2023-04-06T16:16:06.006Z,10.18
2023-04-06T16:18:35.805Z,9.85
2023-04-06T16:23:30.693Z,11.15
2023-04-06T16:26:00.826Z,11.57
2023-04-06T16:28:27.895Z,10.45
2023-04-06T16:30:54.916Z,10.75
2023-04-06T16:33:23.374Z,7.97
2023-04-06T16:35:51.397Z,10.75
2023-04-06T16:38:18.737Z,7.40
2023-04-06T16:40:45.755Z,9.98
2023-04-06T16:43:14.427Z,9.10
2023-04-06T16:45:41.606Z,8.60
2023-04-06T16:48:09.042Z,9.40
2023-04-06T16:50:36.677Z,10.00
2023-04-06T16:53:03.753Z,8.88
2023-04-06T16:55:30.855Z,9.13
2023-04-06T16:57:57.884Z,9.57
2023-04-06T17:00:25.579Z,9.95
2023-04-06T17:02:53.292Z,11.75
2023-04-06T17:05:25.012Z,16.02
2023-04-06T17:07:52.756Z,16.90
2023-04-06T17:10:28.658Z,11.52
2023-04-06T17:13:00.797Z,11.88
2023-04-06T17:15:29.805Z,13.35
2023-04-06T17:17:57.964Z,11.07
2023-04-06T17:20:25.207Z,10.07
2023-04-06T17:22:52.372Z,11.70
2023-04-06T17:25:19.847Z,15.43
2023-04-06T17:27:47.462Z,11.88
2023-04-06T17:30:17.006Z,12.80
2023-04-06T17:32:45.888Z,13.13
2023-04-06T17:35:12.979Z,13.75
2023-04-06T17:37:40.680Z,11.45
2023-04-06T17:40:08.239Z,12.98
2023-04-06T17:42:35.408Z,14.45
2023-04-06T17:45:05.945Z,10.80
2023-04-06T17:47:33.296Z,14.20
2023-04-06T17:50:01.682Z,11.23
2023-04-06T17:52:29.404Z,11.73
2023-04-06T17:54:56.698Z,11.70
2023-04-06T17:57:24.165Z,12.02
2023-04-06T17:59:51.477Z,13.13
2023-04-06T18:02:20.253Z,12.90
2023-04-06T18:04:47.890Z,10.05
2023-04-06T18:07:15.198Z,13.70
2023-04-06T18:09:42.377Z,10.75
2023-04-06T18:12:09.553Z,10.82
2023-04-06T18:14:36.800Z,13.43
2023-04-06T18:17:03.871Z,10.25
2023-04-06T18:19:32.450Z,12.02
2023-04-06T18:21:59.517Z,12.88
2023-04-06T18:24:41.221Z,11.88
2023-04-06T18:27:10.513Z,13.93
2023-04-06T18:29:37.706Z,13.02
2023-04-06T18:32:06.242Z,14.45
2023-04-06T18:34:33.704Z,11.18
2023-04-06T18:37:01.840Z,10.35
2023-04-06T18:39:29.142Z,10.93
2023-04-06T18:41:56.232Z,13.02
2023-04-06T18:44:23.362Z,11.48
2023-04-06T18:46:52.560Z,13.13
2023-04-06T18:49:21.605Z,10.32
2023-04-06T18:51:48.655Z,14.32
2023-04-06T18:54:16.196Z,8.88
2023-04-06T18:56:43.169Z,7.65
2023-04-06T18:59:11.185Z,9.40
2023-04-06T19:01:43.934Z,8.68
2023-04-06T19:04:12.159Z,9.38
2023-04-06T19:06:42.714Z,9.93
2023-04-06T19:09:10.043Z,5.68
2023-04-06T19:11:37.359Z,6.90
2023-04-06T19:14:04.494Z,7.50
2023-04-06T19:16:31.886Z,15.82
2023-04-06T19:19:00.305Z,7.07
2023-04-06T19:21:28.473Z,8.73
2023-04-06T19:23:56.430Z,6.72
2023-04-06T19:26:24.862Z,6.38
2023-04-06T19:28:52.087Z,13.77
2023-04-06T19:31:19.785Z,85.78
2023-04-06T19:33:47.795Z,28.25
2023-04-06T19:36:16.239Z,8.38
2023-04-06T19:38:43.759Z,31.83
2023-04-06T19:41:10.836Z,7.20
2023-04-06T19:43:38.240Z,33.60
2023-04-06T19:46:05.844Z,18.42
2023-04-06T19:48:35.694Z,9.93
2023-04-06T19:51:02.788Z,7.05
2023-04-06T19:53:29.950Z,30.42
2023-04-06T19:55:57.131Z,8.73
2023-04-06T19:58:24.428Z,8.90
2023-04-06T20:00:51.529Z,7.70
2023-04-06T20:03:18.807Z,8.63
2023-04-06T20:05:46.939Z,8.85
2023-04-06T20:08:14.978Z,8.93
2023-04-06T20:10:42.499Z,14.00
2023-04-06T20:13:09.948Z,13.05
2023-04-06T20:15:38.082Z,17.75
2023-04-06T20:18:05.291Z,9.25
2023-04-06T20:20:32.671Z,9.13
2023-04-06T20:23:01.424Z,6.90
2023-04-06T20:25:28.752Z,10.20
2023-04-06T20:27:56.019Z,102.55
2023-04-06T20:30:23.614Z,9.27
2023-04-06T20:32:51.032Z,10.98
2023-04-06T20:35:18.272Z,35.67
2023-04-06T20:37:45.670Z,56.20
2023-04-06T20:40:15.643Z,112.30
2023-04-06T20:42:42.897Z,18.83
2023-04-06T20:45:10.266Z,15.23
2023-04-06T20:47:37.498Z,7.35
2023-04-06T20:50:05.994Z,6.80
2023-04-06T20:52:33.488Z,9.70
2023-04-06T20:55:01.738Z,122.13
2023-04-06T20:57:28.956Z,35.42
2023-04-06T20:59:56.801Z,11.18
2023-04-06T21:02:24.086Z,11.88
2023-04-06T21:04:51.417Z,7.97
2023-04-06T21:07:18.613Z,10.93
2023-04-06T21:09:45.883Z,8.90
2023-04-06T21:12:12.984Z,6.47
2023-04-06T21:14:40.093Z,19.95
2023-04-06T21:17:07.889Z,8.75
2023-04-06T21:19:35.052Z,7.30
2023-04-06T21:22:02.481Z,8.45
2023-04-06T21:24:29.657Z,7.80
2023-04-06T21:26:56.640Z,6.90
2023-04-06T21:29:23.817Z,8.30
2023-04-06T21:31:51.058Z,8.50
2023-04-06T21:34:18.746Z,8.63
2023-04-06T21:36:46.240Z,8.63
2023-04-06T21:39:13.552Z,9.63
2023-04-06T21:41:41.098Z,8.80
2023-04-06T21:44:08.446Z,9.88
2023-04-06T21:46:35.828Z,10.40
2023-04-06T21:49:07.533Z,9.40
2023-04-06T21:51:34.998Z,8.30
2023-04-06T21:54:03.630Z,9.13
2023-04-06T21:56:30.873Z,8.27
2023-04-06T21:58:58.266Z,9.23
2023-04-06T22:01:25.642Z,8.98
2023-04-06T22:03:55.996Z,8.65
2023-04-06T22:06:25.714Z,9.45
2023-04-06T22:08:58.758Z,8.98
2023-04-06T22:11:26.186Z,11.35
2023-04-06T22:13:53.450Z,10.35
2023-04-06T22:16:21.000Z,8.75
2023-04-06T22:18:48.242Z,9.70
2023-04-06T22:21:18.373Z,8.73
2023-04-06T22:23:45.847Z,10.18
2023-04-06T22:26:13.079Z,8.88
2023-04-06T22:28:40.312Z,12.40
2023-04-06T22:31:07.592Z,10.85
2023-04-06T22:33:34.753Z,13.23
2023-04-06T22:36:02.086Z,11.90
2023-04-06T22:38:29.366Z,11.75
2023-04-06T22:40:58.871Z,29.08
2023-04-06T22:43:26.257Z,13.70
2023-04-06T22:45:53.404Z,11.73
2023-04-06T22:48:20.579Z,12.55
2023-04-06T22:50:50.322Z,14.98
2023-04-06T22:53:17.551Z,14.90
2023-04-06T22:55:44.887Z,14.50
2023-04-06T22:58:12.011Z,12.55
2023-04-06T23:00:39.490Z,14.30
2023-04-06T23:03:06.796Z,14.15
2023-04-06T23:05:36.880Z,14.23
2023-04-06T23:08:04.057Z,15.43
2023-04-06T23:10:31.388Z,16.95
2023-04-06T23:12:58.677Z,13.88
2023-04-06T23:15:25.976Z,12.75
2023-04-06T23:17:53.252Z,13.60
2023-04-06T23:20:20.870Z,12.60
2023-04-06T23:22:47.895Z,14.68
2023-04-06T23:25:15.096Z,15.35
2023-04-06T23:27:42.328Z,16.40
2023-04-06T23:30:09.800Z,17.85
2023-04-06T23:32:38.973Z,14.52
2023-04-06T23:35:07.060Z,15.57
2023-04-06T23:37:34.178Z,17.15
2023-04-06T23:40:02.192Z,17.83
2023-04-06T23:42:29.341Z,17.15
2023-04-06T23:44:56.985Z,16.27
2023-04-06T23:47:26.513Z,16.92
2023-04-06T23:49:53.781Z,14.50
2023-04-06T23:52:21.862Z,17.67
2023-04-06T23:54:49.109Z,16.55
2023-04-06T23:57:19.423Z,15.93
